createdAt,value
2022-07-31T00:01:02.758Z,17.383423
2022-07-31T00:02:12.445Z,17.363281
2022-07-31T00:03:22.265Z,17.34314
2022-07-31T00:04:31.145Z,17.34314
2022-07-31T00:05:41.615Z,17.312927
2022-07-31T00:06:50.532Z,17.302856
2022-07-31T00:07:58.232Z,17.272644
2022-07-31T00:09:20.528Z,17.262573
2022-07-31T00:10:19.656Z,17.262573
2022-07-31T00:11:28.418Z,17.232361
2022-07-31T00:12:38.289Z,17.202148
2022-07-31T00:13:56.880Z,17.192078
2022-07-31T00:14:58.732Z,17.161865
2022-07-31T00:16:07.437Z,17.141724
2022-07-31T00:17:18.121Z,17.141724
2022-07-31T00:18:26.909Z,17.111511
2022-07-31T00:19:36.647Z,17.081299
2022-07-31T00:20:46.505Z,17.081299
2022-07-31T00:21:56.252Z,17.09137
2022-07-31T00:23:05.995Z,17.09137
2022-07-31T00:24:16.762Z,17.081299
2022-07-31T00:25:26.486Z,17.061157
2022-07-31T00:26:34.172Z,17.051086
2022-07-31T00:27:42.865Z,17.020874
2022-07-31T00:28:52.629Z,17.020874
2022-07-31T00:30:02.422Z,17.010803
2022-07-31T00:31:12.181Z,16.990662
2022-07-31T00:32:20.969Z,16.990662
2022-07-31T00:33:29.703Z,17.020874
2022-07-31T00:34:39.474Z,17.010803
2022-07-31T00:35:47.222Z,16.97052
2022-07-31T00:36:56.919Z,16.960449
2022-07-31T00:38:26.056Z,16.940308
2022-07-31T00:39:16.354Z,16.940308
2022-07-31T00:40:25.106Z,16.910095
2022-07-31T00:41:34.902Z,16.910095
2022-07-31T00:42:44.652Z,16.910095
2022-07-31T00:43:54.406Z,16.889954
2022-07-31T00:45:05.727Z,16.869812
2022-07-31T00:46:14.821Z,16.889954
2022-07-31T00:47:25.619Z,16.859741
2022-07-31T00:48:33.287Z,16.859741
2022-07-31T00:49:43.054Z,16.859741
2022-07-31T00:50:52.835Z,16.8396
2022-07-31T00:52:01.564Z,16.859741
2022-07-31T00:53:11.557Z,16.859741
2022-07-31T00:54:22.501Z,16.869812
2022-07-31T00:55:28.918Z,16.869812
2022-07-31T00:56:39.628Z,16.889954
2022-07-31T00:57:48.336Z,16.869812
2022-07-31T00:58:58.128Z,16.869812
2022-07-31T01:00:06.941Z,16.829529
2022-07-31T01:01:14.750Z,16.829529
2022-07-31T01:02:24.503Z,16.789246
2022-07-31T01:03:33.223Z,16.738892
2022-07-31T01:04:44.370Z,16.71875
2022-07-31T01:05:52.647Z,16.708679
2022-07-31T01:07:00.784Z,16.688538
2022-07-31T01:08:10.026Z,16.658325
2022-07-31T01:09:19.784Z,16.638184
2022-07-31T01:10:29.537Z,16.607971
2022-07-31T01:11:39.309Z,16.5979
2022-07-31T01:12:54.057Z,16.577759
2022-07-31T01:13:59.818Z,16.577759
2022-07-31T01:15:09.531Z,16.567688
2022-07-31T01:16:17.213Z,16.557617
2022-07-31T01:17:26.873Z,16.557617
2022-07-31T01:18:35.622Z,16.527405
2022-07-31T01:19:44.385Z,16.537476
2022-07-31T01:20:54.157Z,16.537476
2022-07-31T01:22:03.125Z,16.567688
2022-07-31T01:23:13.800Z,16.567688
2022-07-31T01:24:23.552Z,16.557617
2022-07-31T01:25:31.256Z,16.567688
2022-07-31T01:26:40.917Z,16.567688
2022-07-31T01:27:50.115Z,16.577759
2022-07-31T01:28:59.461Z,16.5979
2022-07-31T01:30:09.291Z,16.5979
2022-07-31T01:31:27.578Z,16.607971
2022-07-31T01:32:28.783Z,16.638184
2022-07-31T01:33:38.604Z,16.607971
2022-07-31T01:34:47.354Z,16.648254
2022-07-31T01:35:57.020Z,16.638184
2022-07-31T01:37:06.858Z,16.648254
2022-07-31T01:38:14.416Z,16.678467
2022-07-31T01:39:24.206Z,16.678467
2022-07-31T01:40:34.927Z,16.678467
2022-07-31T01:41:44.678Z,16.688538
2022-07-31T01:42:54.482Z,16.71875
2022-07-31T01:44:04.218Z,16.748962
2022-07-31T01:45:13.978Z,16.759033
2022-07-31T01:46:23.681Z,16.759033
2022-07-31T01:47:31.435Z,16.779175
2022-07-31T01:48:41.171Z,16.759033
2022-07-31T01:49:49.903Z,16.759033
2022-07-31T01:50:59.687Z,16.759033
2022-07-31T01:52:09.523Z,16.759033
2022-07-31T01:53:18.242Z,16.759033
2022-07-31T01:54:27.967Z,16.779175
2022-07-31T01:55:56.880Z,16.779175
2022-07-31T01:56:47.431Z,16.809387
2022-07-31T01:57:57.155Z,16.809387
2022-07-31T01:59:12.449Z,16.829529
2022-07-31T02:00:28.662Z,16.8396
2022-07-31T02:01:27.331Z,16.8396
2022-07-31T02:02:36.084Z,16.869812
2022-07-31T02:03:45.820Z,16.869812
2022-07-31T02:04:56.463Z,16.869812
2022-07-31T02:06:04.137Z,16.889954
2022-07-31T02:07:13.893Z,16.889954
2022-07-31T02:08:21.646Z,16.900024
2022-07-31T02:09:31.403Z,16.900024
2022-07-31T02:10:42.145Z,16.910095
2022-07-31T02:11:53.610Z,16.910095
2022-07-31T02:12:59.600Z,16.910095
2022-07-31T02:14:09.362Z,16.910095
2022-07-31T02:15:18.040Z,16.900024
2022-07-31T02:16:27.769Z,16.940308
2022-07-31T02:17:35.429Z,16.960449
2022-07-31T02:18:45.158Z,16.960449
2022-07-31T02:20:00.059Z,16.960449
2022-07-31T02:21:04.657Z,16.960449
2022-07-31T02:22:13.387Z,16.990662
2022-07-31T02:23:24.130Z,16.960449
2022-07-31T02:24:32.877Z,16.940308
2022-07-31T02:25:42.663Z,16.960449
2022-07-31T02:26:52.400Z,16.960449
2022-07-31T02:28:02.156Z,16.97052
2022-07-31T02:29:19.268Z,16.990662
2022-07-31T02:30:21.612Z,17.010803
2022-07-31T02:31:31.349Z,16.990662
2022-07-31T02:32:41.109Z,16.990662
2022-07-31T02:33:50.881Z,16.97052
2022-07-31T02:34:59.628Z,16.97052
2022-07-31T02:36:09.395Z,16.960449
2022-07-31T02:37:19.148Z,16.960449
2022-07-31T02:38:28.892Z,16.940308
2022-07-31T02:39:37.623Z,16.960449
2022-07-31T02:40:47.407Z,16.940308
2022-07-31T02:41:57.192Z,16.940308
2022-07-31T02:43:04.961Z,16.97052
2022-07-31T02:44:14.696Z,17.010803
2022-07-31T02:45:25.380Z,17.020874
2022-07-31T02:46:35.161Z,17.041016
2022-07-31T02:47:44.917Z,17.041016
2022-07-31T02:48:54.911Z,17.051086
2022-07-31T02:50:04.676Z,17.041016
2022-07-31T02:51:15.437Z,17.041016
2022-07-31T02:52:25.207Z,17.020874
2022-07-31T02:53:33.975Z,17.020874
2022-07-31T02:54:43.756Z,17.041016
2022-07-31T02:55:51.550Z,17.020874
2022-07-31T02:57:01.339Z,17.010803
2022-07-31T02:58:11.132Z,16.960449
2022-07-31T02:59:20.946Z,16.930237
2022-07-31T03:00:31.014Z,16.910095
2022-07-31T03:01:39.646Z,16.889954
2022-07-31T03:02:49.428Z,16.889954
2022-07-31T03:03:59.176Z,16.900024
2022-07-31T03:05:08.932Z,16.869812
2022-07-31T03:06:18.711Z,16.8396
2022-07-31T03:07:28.468Z,16.8396
2022-07-31T03:08:37.264Z,16.8396
2022-07-31T03:09:47.084Z,16.829529
2022-07-31T03:10:56.812Z,16.829529
2022-07-31T03:12:06.763Z,16.809387
2022-07-31T03:13:16.400Z,16.809387
2022-07-31T03:14:24.158Z,16.809387
2022-07-31T03:15:33.865Z,16.789246
2022-07-31T03:16:44.581Z,16.809387
2022-07-31T03:17:54.385Z,16.809387
2022-07-31T03:19:05.168Z,16.789246
2022-07-31T03:20:14.953Z,16.789246
2022-07-31T03:21:23.700Z,16.789246
2022-07-31T03:22:33.486Z,16.789246
2022-07-31T03:23:42.263Z,16.789246
2022-07-31T03:24:51.998Z,16.789246
2022-07-31T03:26:01.725Z,16.809387
2022-07-31T03:27:10.463Z,16.829529
2022-07-31T03:28:20.205Z,16.829529
2022-07-31T03:29:39.348Z,16.829529
2022-07-31T03:30:39.699Z,16.829529
2022-07-31T03:31:49.521Z,16.809387
2022-07-31T03:32:59.321Z,16.829529
2022-07-31T03:34:09.097Z,16.789246
2022-07-31T03:35:18.890Z,16.789246
2022-07-31T03:36:27.631Z,16.809387
2022-07-31T03:37:37.483Z,16.829529
2022-07-31T03:38:50.205Z,16.829529
2022-07-31T03:39:57.053Z,16.789246
2022-07-31T03:41:06.887Z,16.789246
2022-07-31T03:42:18.624Z,16.789246
2022-07-31T03:43:25.315Z,16.829529
2022-07-31T03:44:35.032Z,16.829529
2022-07-31T03:45:43.844Z,16.779175
2022-07-31T03:46:53.727Z,16.789246
2022-07-31T03:48:02.486Z,16.779175
2022-07-31T03:49:12.268Z,16.779175
2022-07-31T03:50:21.998Z,16.759033
2022-07-31T03:51:29.784Z,16.748962
2022-07-31T03:52:38.600Z,16.71875
2022-07-31T03:53:48.421Z,16.708679
2022-07-31T03:54:57.217Z,16.71875
2022-07-31T03:56:07.051Z,16.688538
2022-07-31T03:57:15.801Z,16.71875
2022-07-31T03:58:26.567Z,16.708679
2022-07-31T03:59:40.462Z,16.71875
2022-07-31T04:00:48.041Z,16.71875
2022-07-31T04:01:58.949Z,16.678467
2022-07-31T04:03:07.559Z,16.678467
2022-07-31T04:04:16.769Z,16.658325
2022-07-31T04:05:26.504Z,16.658325
2022-07-31T04:06:35.269Z,16.678467
2022-07-31T04:07:45.006Z,16.678467
2022-07-31T04:08:54.714Z,16.678467
2022-07-31T04:10:05.594Z,16.678467
2022-07-31T04:11:15.401Z,16.678467
2022-07-31T04:12:24.154Z,16.688538
2022-07-31T04:13:32.954Z,16.708679
2022-07-31T04:14:42.750Z,16.708679
2022-07-31T04:15:52.577Z,16.708679
2022-07-31T04:17:02.324Z,16.708679
2022-07-31T04:18:12.047Z,16.738892
2022-07-31T04:19:20.803Z,16.738892
2022-07-31T04:20:30.589Z,16.71875
2022-07-31T04:21:40.384Z,16.748962
2022-07-31T04:22:50.131Z,16.748962
2022-07-31T04:23:59.843Z,16.779175
2022-07-31T04:25:09.617Z,16.779175
2022-07-31T04:26:19.893Z,16.829529
2022-07-31T04:27:28.167Z,16.8396
2022-07-31T04:28:38.886Z,16.8396
2022-07-31T04:29:48.648Z,16.8396
2022-07-31T04:30:58.383Z,16.859741
2022-07-31T04:32:08.101Z,16.859741
2022-07-31T04:33:16.909Z,16.859741
2022-07-31T04:34:25.612Z,16.8396
2022-07-31T04:35:34.346Z,16.8396
2022-07-31T04:36:44.088Z,16.859741
2022-07-31T04:37:53.870Z,16.859741
2022-07-31T04:39:02.675Z,16.889954
2022-07-31T04:40:12.394Z,16.889954
2022-07-31T04:41:21.157Z,16.910095
2022-07-31T04:42:32.718Z,16.910095
2022-07-31T04:43:40.673Z,16.910095
2022-07-31T04:44:50.470Z,16.930237
2022-07-31T04:46:00.257Z,16.940308
2022-07-31T04:47:10.972Z,16.960449
2022-07-31T04:48:20.757Z,16.97052
2022-07-31T04:49:30.581Z,17.010803
2022-07-31T04:50:40.308Z,17.041016
2022-07-31T04:51:50.120Z,17.041016
2022-07-31T04:52:59.876Z,17.061157
2022-07-31T04:54:08.626Z,17.09137
2022-07-31T04:55:18.366Z,17.111511
2022-07-31T04:56:27.126Z,17.151794
2022-07-31T04:57:35.944Z,17.161865
2022-07-31T04:58:45.708Z,17.202148
2022-07-31T04:59:58.444Z,17.22229
2022-07-31T05:01:03.154Z,17.232361
2022-07-31T05:02:13.955Z,17.262573
2022-07-31T05:03:22.706Z,17.272644
2022-07-31T05:04:31.454Z,17.292786
2022-07-31T05:05:41.223Z,17.312927
2022-07-31T05:06:48.985Z,17.363281
2022-07-31T05:07:58.938Z,17.413635
2022-07-31T05:09:12.496Z,17.443848
2022-07-31T05:10:20.434Z,17.463989
2022-07-31T05:11:30.200Z,17.494202
2022-07-31T05:12:39.939Z,17.544556
2022-07-31T05:13:49.755Z,17.564697
2022-07-31T05:14:59.519Z,17.60498
2022-07-31T05:16:08.296Z,17.665405
2022-07-31T05:17:19.024Z,17.715759
2022-07-31T05:18:27.785Z,17.796326
2022-07-31T05:19:37.624Z,17.85675
2022-07-31T05:20:47.406Z,17.937317
2022-07-31T05:22:00.365Z,17.9776
2022-07-31T05:23:06.981Z,18.027954
2022-07-31T05:24:15.629Z,18.068237
2022-07-31T05:25:26.325Z,18.09845
2022-07-31T05:26:37.012Z,18.108521
2022-07-31T05:27:45.816Z,18.148804
2022-07-31T05:28:58.364Z,18.148804
2022-07-31T05:30:05.278Z,18.148804
2022-07-31T05:31:14.055Z,18.108521
2022-07-31T05:32:23.841Z,18.108521
2022-07-31T05:33:33.655Z,18.108521
2022-07-31T05:34:43.409Z,18.128662
2022-07-31T05:35:53.246Z,18.108521
2022-07-31T05:37:02.268Z,18.108521
2022-07-31T05:38:12.052Z,18.09845
2022-07-31T05:39:21.604Z,18.108521
2022-07-31T05:40:29.358Z,18.108521
2022-07-31T05:41:39.147Z,18.148804
2022-07-31T05:42:48.960Z,18.179016
2022-07-31T05:43:56.667Z,18.179016
2022-07-31T05:45:06.478Z,18.179016
2022-07-31T05:46:15.241Z,18.158875
2022-07-31T05:47:24.996Z,18.189087
2022-07-31T05:48:35.720Z,18.219299
2022-07-31T05:49:44.474Z,18.259583
2022-07-31T05:50:55.219Z,18.289795
2022-07-31T05:52:05.368Z,18.330078
2022-07-31T05:53:14.637Z,18.35022
2022-07-31T05:54:24.417Z,18.400574
2022-07-31T05:55:34.169Z,18.430786
2022-07-31T05:56:42.977Z,18.471069
2022-07-31T05:57:52.709Z,18.531494
2022-07-31T05:59:02.478Z,18.561707
2022-07-31T06:00:12.297Z,18.632202
2022-07-31T06:01:22.118Z,18.712769
2022-07-31T06:02:30.820Z,18.803406
2022-07-31T06:03:50.586Z,18.883972
2022-07-31T06:04:51.378Z,18.954468
2022-07-31T06:06:02.314Z,19.035034
2022-07-31T06:07:13.068Z,19.135742
2022-07-31T06:08:22.883Z,19.206238
2022-07-31T06:09:32.691Z,19.327087
2022-07-31T06:10:42.457Z,19.407654
2022-07-31T06:11:51.349Z,19.468079
2022-07-31T06:13:01.077Z,19.548645
2022-07-31T06:14:10.835Z,19.588928
2022-07-31T06:15:20.568Z,19.689636
2022-07-31T06:16:30.315Z,19.770203
2022-07-31T06:17:40.499Z,19.820557
2022-07-31T06:18:48.730Z,19.921265
2022-07-31T06:19:58.459Z,19.99176
2022-07-31T06:21:07.264Z,20.072327
2022-07-31T06:22:11.840Z,20.162964
2022-07-31T06:23:22.717Z,20.263672
2022-07-31T06:24:32.363Z,20.36438
2022-07-31T06:25:42.113Z,20.414734
2022-07-31T06:26:51.898Z,20.475159
2022-07-31T06:28:01.099Z,20.505371
2022-07-31T06:29:11.432Z,20.515442
2022-07-31T06:30:22.172Z,20.555725
2022-07-31T06:31:31.951Z,20.596008
2022-07-31T06:32:41.682Z,20.626221
2022-07-31T06:33:51.493Z,20.646362
2022-07-31T06:35:01.319Z,20.656433
2022-07-31T06:36:11.098Z,20.656433
2022-07-31T06:37:19.924Z,20.686646
2022-07-31T06:38:28.723Z,20.696716
2022-07-31T06:39:54.951Z,20.716858
2022-07-31T06:40:48.237Z,20.696716
2022-07-31T06:41:57.970Z,20.74707
2022-07-31T06:43:07.040Z,20.767212
2022-07-31T06:44:16.419Z,20.837708
2022-07-31T06:45:48.764Z,20.918274
2022-07-31T06:46:36.869Z,20.958557
2022-07-31T06:47:47.632Z,21.029053
2022-07-31T06:48:55.424Z,21.049194
2022-07-31T06:50:06.216Z,21.059265
2022-07-31T06:51:30.163Z,21.059265
2022-07-31T06:52:26.730Z,21.018982
2022-07-31T06:53:36.482Z,21.049194
2022-07-31T06:54:46.223Z,21.049194
2022-07-31T06:55:56.002Z,21.018982
2022-07-31T06:57:05.810Z,21.059265
2022-07-31T06:58:15.590Z,21.109619
2022-07-31T06:59:39.521Z,21.139832
2022-07-31T07:00:36.086Z,21.069336
2022-07-31T07:01:44.912Z,21.059265
2022-07-31T07:02:54.624Z,21.029053
2022-07-31T07:04:03.390Z,21.049194
2022-07-31T07:05:12.149Z,21.069336
2022-07-31T07:06:21.878Z,21.139832
2022-07-31T07:07:31.695Z,21.149902
2022-07-31T07:08:40.330Z,21.180115
2022-07-31T07:09:50.148Z,21.210327
2022-07-31T07:10:58.861Z,21.220398
2022-07-31T07:12:08.637Z,21.24054
2022-07-31T07:13:18.327Z,21.170044
2022-07-31T07:14:29.028Z,21.170044
2022-07-31T07:15:38.838Z,21.170044
2022-07-31T07:16:47.545Z,21.170044
2022-07-31T07:17:57.317Z,21.11969
2022-07-31T07:19:07.081Z,21.11969
2022-07-31T07:20:14.794Z,21.11969
2022-07-31T07:21:24.645Z,21.139832
2022-07-31T07:22:33.385Z,21.180115
2022-07-31T07:23:42.117Z,21.200256
2022-07-31T07:24:51.889Z,21.210327
2022-07-31T07:26:00.636Z,21.270752
2022-07-31T07:27:10.421Z,21.290894
2022-07-31T07:28:29.441Z,21.290894
2022-07-31T07:29:31.053Z,21.300964
2022-07-31T07:30:40.871Z,21.351318
2022-07-31T07:31:49.761Z,21.351318
2022-07-31T07:32:59.559Z,21.37146
2022-07-31T07:34:09.286Z,21.37146
2022-07-31T07:35:19.022Z,21.391602
2022-07-31T07:36:28.785Z,21.37146
2022-07-31T07:37:38.995Z,21.361389
2022-07-31T07:38:48.418Z,21.431885
2022-07-31T07:39:58.180Z,21.462097
2022-07-31T07:41:07.928Z,21.482239
2022-07-31T07:42:18.734Z,21.50238
2022-07-31T07:43:28.486Z,21.572876
2022-07-31T07:44:39.272Z,21.603088
2022-07-31T07:45:48.995Z,21.663513
2022-07-31T07:46:58.717Z,21.734009
2022-07-31T07:48:07.650Z,21.824646
2022-07-31T07:49:17.266Z,21.885071
2022-07-31T07:50:26.814Z,21.885071
2022-07-31T07:51:35.795Z,21.875
2022-07-31T07:52:46.538Z,21.854858
2022-07-31T07:53:55.259Z,21.854858
2022-07-31T07:55:04.051Z,21.885071
2022-07-31T07:56:13.870Z,21.925354
2022-07-31T07:57:23.641Z,21.975708
2022-07-31T07:58:33.377Z,21.99585
2022-07-31T07:59:43.107Z,22.066345
2022-07-31T08:00:52.911Z,22.167053
2022-07-31T08:02:02.838Z,22.217407
2022-07-31T08:03:47.858Z,22.24762
2022-07-31T08:04:22.084Z,22.177124
2022-07-31T08:05:31.880Z,22.217407
2022-07-31T08:06:41.659Z,22.146912
2022-07-31T08:07:51.425Z,22.167053
2022-07-31T08:09:00.213Z,22.167053
2022-07-31T08:10:09.971Z,22.12677
2022-07-31T08:11:18.715Z,22.167053
2022-07-31T08:12:28.461Z,22.227478
2022-07-31T08:13:38.871Z,22.297974
2022-07-31T08:14:49.164Z,22.388611
2022-07-31T08:15:58.955Z,22.479248
2022-07-31T08:17:07.810Z,22.449036
2022-07-31T08:18:16.500Z,22.529602
2022-07-31T08:19:27.386Z,22.650452
2022-07-31T08:20:37.162Z,22.680664
2022-07-31T08:21:46.937Z,22.660522
2022-07-31T08:22:56.730Z,22.660522
2022-07-31T08:24:05.483Z,22.700806
2022-07-31T08:25:15.425Z,22.76123
2022-07-31T08:26:23.999Z,22.841797
2022-07-31T08:27:40.077Z,22.982788
2022-07-31T08:28:50.230Z,23.103638
2022-07-31T08:29:52.218Z,23.123779
2022-07-31T08:31:02.097Z,23.053284
2022-07-31T08:32:11.896Z,22.88208
2022-07-31T08:33:21.745Z,22.88208
2022-07-31T08:34:32.213Z,23.053284
2022-07-31T08:35:44.689Z,23.123779
2022-07-31T08:36:52.064Z,23.184204
2022-07-31T08:38:04.670Z,23.335266
2022-07-31T08:39:17.461Z,23.50647
2022-07-31T08:40:22.407Z,23.707886
2022-07-31T08:41:33.173Z,23.768311
2022-07-31T08:42:41.981Z,23.768311
2022-07-31T08:44:01.032Z,23.828735
2022-07-31T08:45:02.608Z,23.647461
2022-07-31T08:46:11.343Z,23.657532
2022-07-31T08:47:21.215Z,23.627319
2022-07-31T08:48:30.036Z,23.496399
2022-07-31T08:49:38.843Z,23.435974
2022-07-31T08:50:52.122Z,23.587036
2022-07-31T08:51:58.235Z,23.858948
2022-07-31T08:53:07.967Z,24.130859
2022-07-31T08:54:17.840Z,24.352417
2022-07-31T08:55:55.789Z,24.533691
2022-07-31T08:56:38.332Z,24.553833
2022-07-31T08:57:48.078Z,24.382629
2022-07-31T08:58:56.803Z,24.332275
2022-07-31T09:00:06.595Z,24.473267
2022-07-31T09:01:15.454Z,24.543762
2022-07-31T09:02:24.056Z,24.51355
2022-07-31T09:03:32.881Z,24.604187
2022-07-31T09:04:43.331Z,24.946594
2022-07-31T09:05:55.743Z,25.218506
2022-07-31T09:07:05.785Z,25.218506
2022-07-31T09:08:14.662Z,25.278931
2022-07-31T09:09:24.118Z,25.39978
2022-07-31T09:10:34.886Z,25.722046
2022-07-31T09:11:45.743Z,26.034241
2022-07-31T09:12:55.520Z,25.953674
2022-07-31T09:14:03.607Z,25.883179
2022-07-31T09:15:13.114Z,25.802612
2022-07-31T09:16:24.334Z,25.993958
2022-07-31T09:17:32.750Z,26.366577
2022-07-31T09:18:43.493Z,26.628418
2022-07-31T09:19:54.867Z,26.65863
2022-07-31T09:21:02.174Z,26.77948
2022-07-31T09:22:10.745Z,26.960754
2022-07-31T09:23:20.708Z,26.890259
2022-07-31T09:24:29.461Z,26.557922
2022-07-31T09:25:40.221Z,26.467285
2022-07-31T09:26:51.008Z,26.447144
2022-07-31T09:28:00.752Z,26.286011
2022-07-31T09:29:10.584Z,26.517639
2022-07-31T09:30:20.286Z,26.799622
2022-07-31T09:31:30.045Z,26.769409
2022-07-31T09:32:38.811Z,26.729126
2022-07-31T09:33:47.565Z,26.970825
2022-07-31T09:34:57.355Z,27.101746
2022-07-31T09:36:06.208Z,27.142029
2022-07-31T09:37:14.945Z,27.303162
2022-07-31T09:38:24.743Z,27.454224
2022-07-31T09:39:35.890Z,27.514648
2022-07-31T09:40:55.219Z,27.514648
2022-07-31T09:41:57.053Z,27.645569
2022-07-31T09:43:05.820Z,27.575073
2022-07-31T09:44:15.589Z,27.947693
2022-07-31T09:45:26.327Z,28.370667
2022-07-31T09:46:36.095Z,28.753357
2022-07-31T09:47:44.879Z,28.964844
2022-07-31T09:48:56.557Z,28.91449
2022-07-31T09:50:03.401Z,28.54187
2022-07-31T09:51:12.253Z,28.350525
2022-07-31T09:52:22.182Z,27.766418
2022-07-31T09:53:31.938Z,27.625427
2022-07-31T09:54:42.684Z,27.544861
2022-07-31T09:55:52.701Z,27.393799
2022-07-31T09:57:02.777Z,27.585144
2022-07-31T09:58:12.420Z,28.048401
2022-07-31T09:59:22.210Z,28.2901
2022-07-31T10:00:32.116Z,28.320312
2022-07-31T10:01:41.829Z,28.451233
2022-07-31T10:02:51.614Z,28.421021
2022-07-31T10:04:00.412Z,28.390808
2022-07-31T10:05:10.220Z,28.451233
2022-07-31T10:06:20.105Z,28.259888
2022-07-31T10:07:32.635Z,28.108826
2022-07-31T10:08:39.667Z,27.947693
2022-07-31T10:09:48.528Z,28.259888
2022-07-31T10:10:58.299Z,28.622437
2022-07-31T10:12:10.716Z,28.91449
2022-07-31T10:13:18.869Z,29.236755
2022-07-31T10:14:28.608Z,29.528809
2022-07-31T10:15:38.528Z,29.861145
2022-07-31T10:16:47.281Z,29.911499
2022-07-31T10:17:57.044Z,29.971924
2022-07-31T10:19:06.904Z,29.911499
2022-07-31T10:20:15.687Z,29.498596
2022-07-31T10:21:25.497Z,29.528809
2022-07-31T10:22:35.257Z,29.04541
2022-07-31T10:23:45.001Z,28.843994
2022-07-31T10:24:53.830Z,28.91449
2022-07-31T10:26:03.585Z,29.317322
2022-07-31T10:27:13.651Z,29.659729
2022-07-31T10:28:22.196Z,29.569092
2022-07-31T10:29:32.257Z,29.659729
2022-07-31T10:30:40.749Z,29.730225
2022-07-31T10:31:50.524Z,29.941711
2022-07-31T10:33:00.360Z,30.133057
2022-07-31T10:34:11.090Z,30.324402
2022-07-31T10:35:20.857Z,30.525818
2022-07-31T10:36:30.640Z,30.566101
2022-07-31T10:37:40.400Z,29.609375
2022-07-31T10:38:50.220Z,29.115906
2022-07-31T10:39:58.996Z,28.783569
2022-07-31T10:41:07.872Z,28.763428
2022-07-31T10:42:17.626Z,28.642578
2022-07-31T10:43:27.390Z,28.380737
2022-07-31T10:44:38.606Z,28.320312
2022-07-31T10:45:45.961Z,28.350525
2022-07-31T10:46:53.745Z,28.370667
2022-07-31T10:48:01.575Z,28.441162
2022-07-31T10:49:11.318Z,28.703003
2022-07-31T10:50:20.033Z,29.125977
2022-07-31T10:51:27.718Z,29.438171
2022-07-31T10:52:37.460Z,29.730225
2022-07-31T10:53:50.758Z,30.062561
2022-07-31T10:54:55.874Z,30.354614
2022-07-31T10:56:05.628Z,30.163269
2022-07-31T10:57:13.325Z,29.981995
2022-07-31T10:58:23.057Z,29.629517
2022-07-31T10:59:32.856Z,29.498596
2022-07-31T11:00:43.566Z,29.377747
2022-07-31T11:01:53.726Z,29.216614
2022-07-31T11:03:02.203Z,29.377747
2022-07-31T11:04:12.913Z,29.377747
2022-07-31T11:05:21.593Z,29.196472
2022-07-31T11:06:30.314Z,29.438171
2022-07-31T11:07:40.004Z,29.629517
2022-07-31T11:08:49.750Z,29.760437
2022-07-31T11:09:58.592Z,29.689941
2022-07-31T11:11:08.367Z,29.488525
2022-07-31T11:12:18.240Z,29.377747
2022-07-31T11:13:33.451Z,29.075623
2022-07-31T11:14:37.790Z,28.964844
2022-07-31T11:15:47.450Z,28.854065
2022-07-31T11:16:58.188Z,28.572083
2022-07-31T11:18:16.492Z,28.79364
2022-07-31T11:19:18.734Z,29.065552
2022-07-31T11:20:28.420Z,28.964844
2022-07-31T11:21:39.453Z,28.743286
2022-07-31T11:22:47.823Z,28.572083
2022-07-31T11:24:02.876Z,28.66272
2022-07-31T11:25:08.262Z,28.763428
2022-07-31T11:26:17.929Z,28.974915
2022-07-31T11:27:28.561Z,29.186401
2022-07-31T11:28:36.255Z,29.307251
2022-07-31T11:29:58.472Z,29.357605
2022-07-31T11:30:56.694Z,29.347534
2022-07-31T11:32:05.477Z,29.287109
2022-07-31T11:33:15.238Z,29.256897
2022-07-31T11:34:24.976Z,29.226685
2022-07-31T11:35:34.701Z,28.964844
2022-07-31T11:36:43.481Z,28.894348
2022-07-31T11:37:56.545Z,28.843994
2022-07-31T11:39:04.276Z,28.854065
2022-07-31T11:40:12.676Z,28.91449
2022-07-31T11:41:23.536Z,28.823853
2022-07-31T11:42:36.302Z,28.743286
2022-07-31T11:43:42.980Z,28.511658
2022-07-31T11:44:50.680Z,28.300171
2022-07-31T11:45:59.380Z,28.008118
2022-07-31T11:47:27.724Z,27.816772
2022-07-31T11:48:34.030Z,27.736206
2022-07-31T11:49:47.987Z,27.705994
2022-07-31T11:50:51.219Z,27.494507
2022-07-31T11:52:00.974Z,27.544861
2022-07-31T11:53:10.684Z,27.575073
2022-07-31T11:54:19.509Z,27.625427
2022-07-31T11:55:29.183Z,27.575073
2022-07-31T11:56:37.862Z,27.40387
2022-07-31T11:57:52.050Z,27.363586
2022-07-31T11:58:56.259Z,27.323303
2022-07-31T12:00:11.291Z,27.333374
2022-07-31T12:01:16.748Z,27.272949
2022-07-31T12:02:26.602Z,27.142029
2022-07-31T12:03:35.315Z,27.142029
2022-07-31T12:04:45.104Z,27.212524
2022-07-31T12:05:52.793Z,27.303162
2022-07-31T12:07:01.843Z,27.212524
2022-07-31T12:08:11.252Z,27.252808
2022-07-31T12:10:01.758Z,27.323303
2022-07-31T12:10:31.851Z,27.424011
2022-07-31T12:11:40.654Z,27.474365
2022-07-31T12:12:49.427Z,27.514648
2022-07-31T12:13:59.217Z,27.514648
2022-07-31T12:15:06.927Z,27.454224
2022-07-31T12:16:15.620Z,27.494507
2022-07-31T12:17:25.343Z,27.575073
2022-07-31T12:18:33.041Z,27.675781
2022-07-31T12:19:42.830Z,27.726135
2022-07-31T12:20:52.582Z,27.846985
2022-07-31T12:22:02.360Z,27.947693
2022-07-31T12:23:38.884Z,28.008118
2022-07-31T12:24:23.030Z,27.957764
2022-07-31T12:25:32.762Z,27.947693
2022-07-31T12:26:42.606Z,28.018188
2022-07-31T12:27:51.464Z,28.008118
2022-07-31T12:29:01.324Z,28.189392
2022-07-31T12:30:10.187Z,28.481445
2022-07-31T12:31:19.914Z,28.753357
2022-07-31T12:32:29.696Z,28.944702
2022-07-31T12:33:39.414Z,29.065552
2022-07-31T12:34:48.158Z,29.377747
2022-07-31T12:35:57.951Z,29.347534
2022-07-31T12:37:07.053Z,29.347534
2022-07-31T12:38:37.675Z,29.569092
2022-07-31T12:39:47.427Z,29.951782
2022-07-31T12:40:37.942Z,29.881287
2022-07-31T12:41:47.752Z,29.971924
2022-07-31T12:42:55.550Z,30.163269
2022-07-31T12:44:05.277Z,30.213623
2022-07-31T12:45:18.650Z,30.394897
2022-07-31T12:46:26.644Z,30.616455
2022-07-31T12:47:36.348Z,30.475464
2022-07-31T12:48:47.144Z,30.122986
2022-07-31T12:49:55.881Z,29.911499
2022-07-31T12:51:05.625Z,29.931641
2022-07-31T12:52:15.360Z,29.820862
2022-07-31T12:53:24.179Z,29.649658
2022-07-31T12:54:37.773Z,29.871216
2022-07-31T12:55:43.627Z,30.253906
2022-07-31T12:56:51.366Z,30.535889
2022-07-31T12:58:01.128Z,30.727234
2022-07-31T12:59:09.892Z,30.455322
2022-07-31T13:00:19.646Z,29.750366
2022-07-31T13:01:29.464Z,29.156189
2022-07-31T13:02:38.214Z,28.974915
2022-07-31T13:03:47.970Z,29.005127
2022-07-31T13:04:57.697Z,29.005127
2022-07-31T13:06:06.445Z,29.156189
2022-07-31T13:07:16.174Z,29.559021
2022-07-31T13:08:24.927Z,29.790649
2022-07-31T13:09:35.053Z,29.689941
2022-07-31T13:10:45.809Z,29.609375
2022-07-31T13:11:57.841Z,30.082703
2022-07-31T13:13:05.345Z,30.616455
2022-07-31T13:14:15.122Z,30.999146
2022-07-31T13:15:24.891Z,31.331482
2022-07-31T13:16:34.838Z,31.542969